createdAt,value
2022-08-16T00:02:31.993Z,20.81
2022-08-16T00:05:00.304Z,20.78
2022-08-16T00:07:29.142Z,20.81
2022-08-16T00:09:59.804Z,20.74
2022-08-16T00:12:31.408Z,20.70
2022-08-16T00:15:02.445Z,20.70
2022-08-16T00:17:30.426Z,20.74
2022-08-16T00:20:24.178Z,20.68
2022-08-16T00:22:53.824Z,20.67
2022-08-16T00:26:33.626Z,20.72
2022-08-16T00:28:14.801Z,20.73
2022-08-16T00:30:43.222Z,20.72
2022-08-16T00:33:13.235Z,20.72
2022-08-16T00:35:41.505Z,20.67
2022-08-16T00:38:10.037Z,20.72
2022-08-16T00:41:01.647Z,20.70
2022-08-16T00:43:42.442Z,20.68
2022-08-16T00:46:22.333Z,20.64
2022-08-16T00:49:02.811Z,20.64
2022-08-16T00:51:31.686Z,20.65
2022-08-16T00:54:01.210Z,20.65
2022-08-16T00:56:57.131Z,20.54
2022-08-16T00:59:25.917Z,20.63
2022-08-16T01:01:54.712Z,20.62
2022-08-16T01:04:29.866Z,20.63
2022-08-16T01:07:02.134Z,20.59
2022-08-16T01:09:33.242Z,20.56
2022-08-16T01:12:08.672Z,20.57
2022-08-16T01:14:44.434Z,20.52
2022-08-16T01:17:17.392Z,20.48
2022-08-16T01:19:49.417Z,20.50
2022-08-16T01:22:49.884Z,20.48
2022-08-16T01:25:17.902Z,20.48
2022-08-16T01:27:53.429Z,20.48
2022-08-16T01:30:26.554Z,20.45
2022-08-16T01:33:02.470Z,20.29
2022-08-16T01:35:36.565Z,20.14
2022-08-16T01:38:19.395Z,20.13
2022-08-16T01:40:51.042Z,20.19
2022-08-16T01:43:19.322Z,20.28
2022-08-16T01:45:47.709Z,20.30
2022-08-16T01:48:28.856Z,20.34
2022-08-16T01:51:08.907Z,20.37
2022-08-16T01:53:44.428Z,20.33
2022-08-16T01:56:24.946Z,20.29
2022-08-16T01:58:54.989Z,20.30
2022-08-16T02:01:26.212Z,20.25
2022-08-16T02:03:58.674Z,20.21
2022-08-16T02:06:46.699Z,20.18
2022-08-16T02:09:18.114Z,20.24
2022-08-16T02:11:52.977Z,20.27
2022-08-16T02:14:26.277Z,20.23
2022-08-16T02:16:56.255Z,20.25
2022-08-16T02:19:25.269Z,20.26
2022-08-16T02:22:33.592Z,20.28
2022-08-16T02:25:05.442Z,20.28
2022-08-16T02:27:35.317Z,20.28
2022-08-16T02:30:08.073Z,20.28
2022-08-16T02:32:51.208Z,20.26
2022-08-16T02:35:26.394Z,20.23
2022-08-16T02:37:56.337Z,20.16
2022-08-16T02:40:30.198Z,20.16
2022-08-16T02:43:00.793Z,20.11
2022-08-16T02:45:30.862Z,20.11
2022-08-16T02:48:29.024Z,20.08
2022-08-16T02:50:53.707Z,20.07
2022-08-16T02:53:23.829Z,20.04
2022-08-16T02:55:52.562Z,20.02
2022-08-16T02:58:25.229Z,20.05
2022-08-16T03:00:53.898Z,20.01
2022-08-16T03:03:25.027Z,20.01
2022-08-16T03:05:53.538Z,20.00
2022-08-16T03:08:50.533Z,20.01
2022-08-16T03:11:16.292Z,20.04
2022-08-16T03:13:51.249Z,20.02
2022-08-16T03:16:37.878Z,20.01
2022-08-16T03:19:07.361Z,19.99
2022-08-16T03:21:38.289Z,19.97
2022-08-16T03:24:29.445Z,19.95
2022-08-16T03:26:57.953Z,19.84
2022-08-16T03:29:30.392Z,19.94
2022-08-16T03:31:59.608Z,19.93
2022-08-16T03:34:30.869Z,19.87
2022-08-16T03:37:00.182Z,19.85
2022-08-16T03:39:28.732Z,19.88
2022-08-16T03:41:59.684Z,19.86
2022-08-16T03:44:43.826Z,19.84
2022-08-16T03:47:19.023Z,19.86
2022-08-16T03:49:51.521Z,19.83
2022-08-16T03:52:20.596Z,19.76
2022-08-16T03:54:58.203Z,19.81
2022-08-16T03:57:31.632Z,19.80
2022-08-16T04:00:35.125Z,19.86
2022-08-16T04:03:07.666Z,19.86
2022-08-16T04:05:38.143Z,19.94
2022-08-16T04:08:23.774Z,19.95
2022-08-16T04:10:54.859Z,20.02
2022-08-16T04:14:00.680Z,20.06
2022-08-16T04:16:26.142Z,20.19
2022-08-16T04:19:02.808Z,20.23
2022-08-16T04:21:33.582Z,20.28
2022-08-16T04:24:03.036Z,20.44
2022-08-16T04:26:32.647Z,20.59
2022-08-16T04:29:16.892Z,20.78
2022-08-16T04:31:55.725Z,20.89
2022-08-16T04:34:27.086Z,20.95
2022-08-16T04:36:55.145Z,21.18
2022-08-16T04:39:36.516Z,21.28
2022-08-16T04:42:13.379Z,21.53
2022-08-16T04:44:54.066Z,21.62
2022-08-16T04:47:33.424Z,21.78
2022-08-16T04:50:05.905Z,22.00
2022-08-16T04:52:36.320Z,22.14
2022-08-16T04:55:07.556Z,22.27
2022-08-16T04:57:36.901Z,22.42
2022-08-16T05:00:31.932Z,22.59
2022-08-16T05:02:58.866Z,22.84
2022-08-16T05:05:33.042Z,22.96
2022-08-16T05:08:28.098Z,23.10
2022-08-16T05:11:00.274Z,23.27
2022-08-16T05:13:41.267Z,23.40
2022-08-16T05:16:11.807Z,23.58
2022-08-16T05:18:41.473Z,23.63
2022-08-16T05:21:12.568Z,23.83
2022-08-16T05:23:41.100Z,24.07
2022-08-16T05:26:19.987Z,24.28
2022-08-16T05:28:55.305Z,24.23
2022-08-16T05:31:24.299Z,24.33
2022-08-16T05:34:00.219Z,24.46
2022-08-16T05:36:33.837Z,24.59
2022-08-16T05:39:03.758Z,24.81
2022-08-16T05:41:31.773Z,24.96
2022-08-16T05:44:05.276Z,25.14
2022-08-16T05:46:33.590Z,25.21
2022-08-16T05:49:09.024Z,25.22
2022-08-16T05:51:40.075Z,25.34
2022-08-16T05:54:11.206Z,25.58
2022-08-16T05:56:40.238Z,25.82
2022-08-16T05:59:11.532Z,25.99
2022-08-16T06:01:40.482Z,26.17
2022-08-16T06:04:13.434Z,26.21
2022-08-16T06:06:58.906Z,26.26
2022-08-16T06:09:42.878Z,26.43
2022-08-16T06:12:27.362Z,26.46
2022-08-16T06:14:59.338Z,26.75
2022-08-16T06:17:41.019Z,26.87
2022-08-16T06:20:23.198Z,27.22
2022-08-16T06:22:58.708Z,27.34
2022-08-16T06:25:36.159Z,27.31
2022-08-16T06:28:09.403Z,27.46
2022-08-16T06:30:43.498Z,27.54
2022-08-16T06:33:12.781Z,27.75
2022-08-16T06:35:42.305Z,27.91
2022-08-16T06:38:34.044Z,28.25
2022-08-16T06:40:58.953Z,28.25
2022-08-16T06:43:27.331Z,28.27
2022-08-16T06:45:56.181Z,28.40
2022-08-16T06:48:32.466Z,28.67
2022-08-16T06:51:03.738Z,28.57
2022-08-16T06:53:35.538Z,28.69
2022-08-16T06:56:14.176Z,28.87
2022-08-16T06:58:52.279Z,28.91
2022-08-16T07:01:34.422Z,29.07
2022-08-16T07:04:11.849Z,29.06
2022-08-16T07:06:42.991Z,29.19
2022-08-16T07:09:12.190Z,29.28
2022-08-16T07:11:45.672Z,29.49
2022-08-16T07:14:24.165Z,29.67
2022-08-16T07:16:53.771Z,29.75
2022-08-16T07:19:21.857Z,29.99
2022-08-16T07:22:36.562Z,30.00
2022-08-16T07:24:59.234Z,30.07
2022-08-16T07:27:27.418Z,30.11
2022-08-16T07:29:56.354Z,30.26
2022-08-16T07:32:29.529Z,30.41
2022-08-16T07:34:59.731Z,30.40
2022-08-16T07:37:29.130Z,30.58
2022-08-16T07:39:57.801Z,30.70
2022-08-16T07:42:34.995Z,30.77
2022-08-16T07:45:14.105Z,31.14
2022-08-16T07:47:45.596Z,31.15
2022-08-16T07:50:57.137Z,31.39
2022-08-16T07:53:08.942Z,31.21
2022-08-16T07:55:47.709Z,31.52
2022-08-16T07:58:18.483Z,31.75
2022-08-16T08:01:10.054Z,31.93
2022-08-16T08:03:42.529Z,31.62
2022-08-16T08:06:13.554Z,31.79
2022-08-16T08:08:51.617Z,31.89
2022-08-16T08:11:23.633Z,32.15
2022-08-16T08:13:53.601Z,32.22
2022-08-16T08:16:30.520Z,32.34
2022-08-16T08:19:01.070Z,32.35
2022-08-16T08:22:01.519Z,32.40
2022-08-16T08:24:21.840Z,32.54
2022-08-16T08:26:50.629Z,32.56
2022-08-16T08:29:22.628Z,32.61
2022-08-16T08:31:53.658Z,32.71
2022-08-16T08:34:23.106Z,32.92
2022-08-16T08:36:54.559Z,32.97
2022-08-16T08:39:24.468Z,33.19
2022-08-16T08:41:53.624Z,33.28
2022-08-16T08:44:29.883Z,33.23
2022-08-16T08:47:01.799Z,33.39
2022-08-16T08:49:46.500Z,33.47
2022-08-16T08:52:34.684Z,33.37
2022-08-16T08:55:10.509Z,33.40
2022-08-16T08:57:40.634Z,33.29
2022-08-16T09:00:13.714Z,33.24
2022-08-16T09:02:51.746Z,33.56
2022-08-16T09:05:22.395Z,33.59
2022-08-16T09:08:00.768Z,33.55
2022-08-16T09:10:32.592Z,33.67
2022-08-16T09:13:02.421Z,33.53
2022-08-16T09:15:33.218Z,33.43
2022-08-16T09:18:27.057Z,33.42
2022-08-16T09:20:59.007Z,33.45
2022-08-16T09:23:28.830Z,33.80
2022-08-16T09:25:58.415Z,33.66
2022-08-16T09:29:14.043Z,33.80
2022-08-16T09:31:16.074Z,33.98
2022-08-16T09:33:45.302Z,33.98
2022-08-16T09:36:32.327Z,34.19
2022-08-16T09:39:03.434Z,34.26
2022-08-16T09:41:33.747Z,34.19
2022-08-16T09:45:09.198Z,34.33
2022-08-16T09:46:54.859Z,34.49
2022-08-16T09:49:26.406Z,34.65
2022-08-16T09:52:06.302Z,34.70
2022-08-16T09:54:44.580Z,34.24
2022-08-16T09:57:14.969Z,34.42
2022-08-16T09:59:43.551Z,34.47
2022-08-16T10:02:25.997Z,34.67
2022-08-16T10:04:57.213Z,34.75
2022-08-16T10:07:26.390Z,34.87
2022-08-16T10:10:12.906Z,34.87
2022-08-16T10:13:06.523Z,34.59
2022-08-16T10:15:37.143Z,34.79
2022-08-16T10:18:46.053Z,34.67
2022-08-16T10:20:56.366Z,34.82
2022-08-16T10:23:26.442Z,34.94
2022-08-16T10:27:21.945Z,35.09
2022-08-16T10:28:46.230Z,34.95
2022-08-16T10:31:43.633Z,35.03
2022-08-16T10:34:31.872Z,35.16
2022-08-16T10:36:55.110Z,35.33
2022-08-16T10:39:23.266Z,35.20
2022-08-16T10:41:52.470Z,35.16
2022-08-16T10:44:21.886Z,35.24
2022-08-16T10:46:50.372Z,35.37
2022-08-16T10:49:18.513Z,35.15
2022-08-16T10:52:03.059Z,34.79
2022-08-16T10:54:58.422Z,34.37
2022-08-16T10:57:24.520Z,33.95
2022-08-16T10:59:57.793Z,33.85
2022-08-16T11:02:58.460Z,33.86
2022-08-16T11:05:17.846Z,33.90
2022-08-16T11:07:55.309Z,34.02
2022-08-16T11:13:57.350Z,34.03
2022-08-16T11:16:27.640Z,34.33
2022-08-16T11:19:06.303Z,34.48
2022-08-16T11:24:41.453Z,34.61
2022-08-16T11:27:23.364Z,34.20
2022-08-16T11:29:54.771Z,33.83
2022-08-16T11:32:31.985Z,34.16
2022-08-16T11:35:14.819Z,33.85
2022-08-16T11:40:38.916Z,33.50
2022-08-16T11:43:10.242Z,33.58
2022-08-16T11:45:38.812Z,33.73
2022-08-16T11:48:12.390Z,33.91
2022-08-16T11:50:40.815Z,33.99
2022-08-16T11:53:09.628Z,33.88
2022-08-16T11:55:39.223Z,33.80
2022-08-16T11:58:14.382Z,33.66
2022-08-16T12:00:51.148Z,33.61
2022-08-16T12:03:34.868Z,33.39
2022-08-16T12:06:11.231Z,33.15
2022-08-16T12:08:55.658Z,33.59
2022-08-16T12:11:23.731Z,33.70
2022-08-16T12:13:54.790Z,33.76
2022-08-16T12:16:24.553Z,33.88
2022-08-16T12:19:00.945Z,33.78
2022-08-16T12:21:35.984Z,34.05
2022-08-16T12:24:17.109Z,33.74
2022-08-16T12:26:45.638Z,34.00
2022-08-16T12:29:13.870Z,34.06
2022-08-16T12:32:00.750Z,34.08
2022-08-16T12:34:32.607Z,33.84
2022-08-16T12:37:10.376Z,33.77
2022-08-16T12:39:47.056Z,33.93
2022-08-16T12:42:20.868Z,34.04
2022-08-16T12:44:53.159Z,34.06
2022-08-16T12:47:38.634Z,34.15
2022-08-16T12:50:10.450Z,34.09
2022-08-16T12:52:44.451Z,34.18
2022-08-16T12:55:22.140Z,34.17
2022-08-16T12:57:58.739Z,33.98
2022-08-16T13:00:33.570Z,33.76
2022-08-16T13:03:03.450Z,33.76
2022-08-16T13:05:47.714Z,33.84
2022-08-16T13:08:27.454Z,33.58
2022-08-16T13:10:59.853Z,33.70
2022-08-16T13:13:29.600Z,33.58
2022-08-16T13:16:03.679Z,33.55
2022-08-16T13:18:35.762Z,33.59
2022-08-16T13:21:07.073Z,33.55
2022-08-16T13:23:36.898Z,33.44
2022-08-16T13:26:12.854Z,33.29
2022-08-16T13:28:47.767Z,32.83
2022-08-16T13:31:16.920Z,32.79
2022-08-16T13:33:45.408Z,32.69
2022-08-16T13:36:38.751Z,32.83
2022-08-16T13:39:05.318Z,32.75
2022-08-16T13:41:33.494Z,32.79
2022-08-16T13:44:04.172Z,32.82
2022-08-16T13:46:37.857Z,32.67
2022-08-16T13:49:07.003Z,32.71
2022-08-16T13:51:36.401Z,32.46
2022-08-16T13:54:07.841Z,32.41
2022-08-16T13:56:39.712Z,32.33
2022-08-16T13:59:19.623Z,32.40
2022-08-16T14:01:55.096Z,32.26
2022-08-16T14:04:26.356Z,32.24
2022-08-16T14:06:57.190Z,32.40
2022-08-16T14:09:27.065Z,32.42
2022-08-16T14:11:56.037Z,32.58
2022-08-16T14:14:28.598Z,32.66
2022-08-16T14:16:57.525Z,32.47
2022-08-16T14:19:26.525Z,32.44
2022-08-16T14:22:14.908Z,32.36
2022-08-16T14:24:47.131Z,32.27
2022-08-16T14:27:17.121Z,32.15
2022-08-16T14:29:45.727Z,32.21
2022-08-16T14:32:27.034Z,32.13
2022-08-16T14:35:03.182Z,31.92
2022-08-16T14:37:33.749Z,31.70
2022-08-16T14:40:03.354Z,31.73
2022-08-16T14:42:31.888Z,31.54
2022-08-16T14:45:00.741Z,31.32
2022-08-16T14:47:34.390Z,31.20
2022-08-16T14:50:03.223Z,30.92
2022-08-16T14:52:54.766Z,30.68
2022-08-16T14:55:24.252Z,30.83
2022-08-16T14:57:52.853Z,30.48
2022-08-16T15:00:32.804Z,30.57
2022-08-16T15:03:04.515Z,30.70
2022-08-16T15:05:32.949Z,30.58
2022-08-16T15:08:02.462Z,30.71
2022-08-16T15:10:32.265Z,30.70
2022-08-16T15:13:01.457Z,30.63
2022-08-16T15:15:31.354Z,30.65
2022-08-16T15:18:01.610Z,30.70
2022-08-16T15:20:35.322Z,30.50
2022-08-16T15:23:08.477Z,30.13
2022-08-16T15:25:41.455Z,29.97
2022-08-16T15:28:30.654Z,30.08
2022-08-16T15:31:00.843Z,30.32
2022-08-16T15:33:32.484Z,30.05
2022-08-16T15:36:00.823Z,30.02
2022-08-16T15:38:57.694Z,29.98
2022-08-16T15:41:48.904Z,29.92
2022-08-16T15:44:22.214Z,29.93
2022-08-16T15:46:55.492Z,29.91
2022-08-16T15:49:37.231Z,29.78
2022-08-16T15:52:14.965Z,29.56
2022-08-16T15:54:53.546Z,29.43
2022-08-16T15:57:25.173Z,29.41
2022-08-16T15:59:56.450Z,29.51
2022-08-16T16:02:33.524Z,29.62
2022-08-16T16:05:04.505Z,29.70
2022-08-16T16:07:35.338Z,29.67
2022-08-16T16:10:12.966Z,29.61
2022-08-16T16:12:52.964Z,29.49
2022-08-16T16:15:24.457Z,29.34
2022-08-16T16:17:53.140Z,29.27
2022-08-16T16:20:27.268Z,29.10
2022-08-16T16:22:57.815Z,29.05
2022-08-16T16:25:29.264Z,29.10
2022-08-16T16:27:59.492Z,28.96
2022-08-16T16:30:37.875Z,28.90
2022-08-16T16:33:15.726Z,28.82
2022-08-16T16:35:55.458Z,28.66
2022-08-16T16:38:30.950Z,28.61
2022-08-16T16:41:02.217Z,28.62
2022-08-16T16:43:31.925Z,28.87
2022-08-16T16:46:02.176Z,29.02
2022-08-16T16:48:34.833Z,28.97
2022-08-16T16:51:09.546Z,28.92
2022-08-16T16:53:39.505Z,28.97
2022-08-16T16:56:19.673Z,28.97
2022-08-16T16:59:01.733Z,28.81
2022-08-16T17:01:56.880Z,28.78
2022-08-16T17:04:31.786Z,28.59
2022-08-16T17:07:01.752Z,28.44
2022-08-16T17:09:30.942Z,28.53
2022-08-16T17:12:00.593Z,28.50
2022-08-16T17:14:32.777Z,28.46
2022-08-16T17:17:08.695Z,28.38
2022-08-16T17:19:41.022Z,28.33
2022-08-16T17:22:14.676Z,28.23
2022-08-16T17:24:50.221Z,28.15
2022-08-16T17:27:32.597Z,27.96
2022-08-16T17:30:01.827Z,27.95
2022-08-16T17:32:33.575Z,27.89
2022-08-16T17:35:18.489Z,27.84
2022-08-16T17:37:51.588Z,27.76
2022-08-16T17:40:25.517Z,27.66
2022-08-16T17:43:11.344Z,27.57
2022-08-16T17:45:40.319Z,27.45
2022-08-16T17:48:08.715Z,27.23
2022-08-16T17:50:37.106Z,27.08
2022-08-16T17:53:06.342Z,27.02
2022-08-16T17:55:36.844Z,26.98
2022-08-16T17:58:20.124Z,26.87
2022-08-16T18:00:56.075Z,26.78
2022-08-16T18:04:02.865Z,26.73
2022-08-16T18:06:16.842Z,26.63
2022-08-16T18:08:48.859Z,26.54
2022-08-16T18:11:26.023Z,26.46
2022-08-16T18:13:55.803Z,26.37
2022-08-16T18:16:25.767Z,26.20
2022-08-16T18:18:54.145Z,26.20
2022-08-16T18:21:40.061Z,26.14
2022-08-16T18:24:08.686Z,26.11
2022-08-16T18:26:37.392Z,25.98
2022-08-16T18:29:05.645Z,25.92
2022-08-16T18:31:35.598Z,25.91
2022-08-16T18:34:03.779Z,25.85
2022-08-16T18:36:33.459Z,25.76
2022-08-16T18:39:02.053Z,25.75
2022-08-16T18:41:30.694Z,25.68
2022-08-16T18:44:26.773Z,25.65
2022-08-16T18:46:50.733Z,25.57
2022-08-16T18:49:19.846Z,25.51
2022-08-16T18:51:48.294Z,25.47
2022-08-16T18:54:19.317Z,25.45
2022-08-16T18:56:56.207Z,25.42
2022-08-16T18:59:28.304Z,25.33
2022-08-16T19:02:00.274Z,25.14
2022-08-16T19:04:55.963Z,25.22
2022-08-16T19:07:21.217Z,25.22
2022-08-16T19:09:49.259Z,25.20
2022-08-16T19:12:17.259Z,25.19
2022-08-16T19:15:07.897Z,25.12
2022-08-16T19:17:41.399Z,25.09
2022-08-16T19:20:11.347Z,25.05
2022-08-16T19:23:02.029Z,24.98
2022-08-16T19:25:47.593Z,24.94
2022-08-16T19:28:49.687Z,24.95
2022-08-16T19:31:12.324Z,24.83
2022-08-16T19:33:54.098Z,24.75
2022-08-16T19:36:31.194Z,24.62
2022-08-16T19:39:04.880Z,24.64
2022-08-16T19:41:35.377Z,24.29
2022-08-16T19:44:04.407Z,24.27
2022-08-16T19:46:32.430Z,24.48
2022-08-16T19:49:02.087Z,24.48
2022-08-16T19:51:30.337Z,24.42
2022-08-16T19:53:58.378Z,24.46
2022-08-16T19:56:27.010Z,24.44
2022-08-16T19:59:18.135Z,24.36
2022-08-16T20:01:44.947Z,24.38
2022-08-16T20:04:14.689Z,24.47
2022-08-16T20:06:43.176Z,24.47
2022-08-16T20:09:15.625Z,24.37
2022-08-16T20:11:45.437Z,24.48
2022-08-16T20:14:24.028Z,24.43
2022-08-16T20:16:56.194Z,24.38
2022-08-16T20:19:27.531Z,24.31
2022-08-16T20:21:57.377Z,24.29
2022-08-16T20:24:35.325Z,24.24
2022-08-16T20:27:05.038Z,24.24
2022-08-16T20:29:33.053Z,24.22
2022-08-16T20:32:01.168Z,24.21
2022-08-16T20:34:30.611Z,24.21
2022-08-16T20:36:58.704Z,24.17
2022-08-16T20:39:26.861Z,24.01
2022-08-16T20:41:55.175Z,23.96
2022-08-16T20:44:25.393Z,24.01
2022-08-16T20:46:53.682Z,24.07
2022-08-16T20:49:21.704Z,24.07
2022-08-16T20:51:55.839Z,24.06
2022-08-16T20:54:26.018Z,23.97
2022-08-16T20:56:54.151Z,23.95
2022-08-16T20:59:22.196Z,23.82
2022-08-16T21:01:50.892Z,23.88
2022-08-16T21:04:20.285Z,23.79
2022-08-16T21:06:53.426Z,23.75
2022-08-16T21:09:26.408Z,23.79
2022-08-16T21:11:56.035Z,23.78
2022-08-16T21:14:24.175Z,23.70
2022-08-16T21:16:52.518Z,23.67
2022-08-16T21:19:21.053Z,23.60
2022-08-16T21:21:49.678Z,23.56
2022-08-16T21:24:17.777Z,23.53
2022-08-16T21:26:55.106Z,23.46
2022-08-16T21:29:24.957Z,23.44
2022-08-16T21:31:54.220Z,23.36
2022-08-16T21:34:22.259Z,23.32
2022-08-16T21:36:50.250Z,23.27
2022-08-16T21:39:18.287Z,23.24
2022-08-16T21:41:47.698Z,23.19
2022-08-16T21:44:15.756Z,23.13
2022-08-16T21:46:43.777Z,23.12
2022-08-16T21:49:11.978Z,23.10
2022-08-16T21:51:39.947Z,23.05
2022-08-16T21:54:07.989Z,23.04
2022-08-16T21:56:36.102Z,23.03
2022-08-16T21:59:10.984Z,22.99
2022-08-16T22:01:41.546Z,22.93
2022-08-16T22:04:37.948Z,22.95
2022-08-16T22:06:58.816Z,22.92
2022-08-16T22:09:26.907Z,22.90
2022-08-16T22:11:54.943Z,22.89
2022-08-16T22:14:24.398Z,22.90
2022-08-16T22:16:52.571Z,22.88
2022-08-16T22:19:23.967Z,22.87
2022-08-16T22:21:52.350Z,22.89
2022-08-16T22:24:20.404Z,22.87
2022-08-16T22:26:48.404Z,22.82
2022-08-16T22:29:16.425Z,22.85
2022-08-16T22:31:45.828Z,22.82
2022-08-16T22:34:14.821Z,22.79
2022-08-16T22:36:43.305Z,22.78
2022-08-16T22:39:13.787Z,22.75
2022-08-16T22:41:45.620Z,22.70
2022-08-16T22:44:14.045Z,22.64
2022-08-16T22:46:42.530Z,22.59
2022-08-16T22:49:13.128Z,22.56
2022-08-16T22:51:41.536Z,22.50
2022-08-16T22:54:43.949Z,22.48
2022-08-16T22:56:59.025Z,22.38
2022-08-16T22:59:28.700Z,22.36
2022-08-16T23:01:56.783Z,22.34
2022-08-16T23:04:26.528Z,22.32
2022-08-16T23:06:54.670Z,22.26
2022-08-16T23:09:23.663Z,22.23
2022-08-16T23:11:52.013Z,22.21
2022-08-16T23:14:20.165Z,22.17
2022-08-16T23:16:48.278Z,22.16
2022-08-16T23:19:17.889Z,22.12
2022-08-16T23:21:49.482Z,22.09
2022-08-16T23:24:19.498Z,21.99
2022-08-16T23:26:49.320Z,21.96
2022-08-16T23:29:23.900Z,21.97
2022-08-16T23:31:56.254Z,21.98
2022-08-16T23:34:24.639Z,21.98
2022-08-16T23:36:54.105Z,21.95
2022-08-16T23:39:22.192Z,21.93
2022-08-16T23:41:50.216Z,21.93
2022-08-16T23:44:44.095Z,21.91
2022-08-16T23:47:07.449Z,21.84
2022-08-16T23:49:59.216Z,21.84
2022-08-16T23:52:45.285Z,21.80
2022-08-16T23:55:13.098Z,21.86
2022-08-16T23:57:41.117Z,21.87
